sensor_id;sensor_type;location;lat;lon;timestamp;P1;durP1;ratioP1;P2;durP2;ratioP2
64560;SDS011;50960;46.838;16.838;2023-08-31T04:24:02;1.40;;;1.40;;
64560;SDS011;50960;46.838;16.838;2023-08-31T04:26:28;1.38;;;1.30;;
64560;SDS011;50960;46.838;16.838;2023-08-31T04:28:55;1.50;;;1.40;;
64560;SDS011;50960;46.838;16.838;2023-08-31T04:31:22;2.03;;;1.50;;
64560;SDS011;50960;46.838;16.838;2023-08-31T04:33:48;1.70;;;1.60;;
64560;SDS011;50960;46.838;16.838;2023-08-31T04:36:23;1.40;;;1.38;;
64560;SDS011;50960;46.838;16.838;2023-08-31T04:38:51;1.55;;;1.42;;
64560;SDS011;50960;46.838;16.838;2023-08-31T04:41:18;5.10;;;4.70;;
64560;SDS011;50960;46.838;16.838;2023-08-31T04:43:44;4.50;;;4.10;;
64560;SDS011;50960;46.838;16.838;2023-08-31T04:46:13;2.55;;;1.90;;
64560;SDS011;50960;46.838;16.838;2023-08-31T04:48:41;3.35;;;1.52;;
64560;SDS011;50960;46.838;16.838;2023-08-31T04:51:09;1.45;;;1.40;;
64560;SDS011;50960;46.838;16.838;2023-08-31T04:54:00;1.60;;;1.50;;
64560;SDS011;50960;46.838;16.838;2023-08-31T04:56:30;1.67;;;1.58;;
64560;SDS011;50960;46.838;16.838;2023-08-31T04:58:58;1.70;;;1.60;;
64560;SDS011;50960;46.838;16.838;2023-08-31T05:01:25;2.17;;;1.90;;
64560;SDS011;50960;46.838;16.838;2023-08-31T05:03:51;2.88;;;1.80;;
64560;SDS011;50960;46.838;16.838;2023-08-31T05:06:18;1.80;;;1.67;;
64560;SDS011;50960;46.838;16.838;2023-08-31T05:08:44;1.40;;;1.30;;
64560;SDS011;50960;46.838;16.838;2023-08-31T14:22:37;3.20;;;2.90;;
64560;SDS011;50960;46.838;16.838;2023-08-31T14:25:09;3.47;;;2.80;;
64560;SDS011;50960;46.838;16.838;2023-08-31T14:27:36;2.75;;;2.55;;
64560;SDS011;50960;46.838;16.838;2023-08-31T14:30:04;3.00;;;2.70;;
64560;SDS011;50960;46.838;16.838;2023-08-31T14:32:33;2.78;;;2.58;;
64560;SDS011;50960;46.838;16.838;2023-08-31T14:35:00;2.70;;;2.50;;
64560;SDS011;50960;46.838;16.838;2023-08-31T14:37:26;2.25;;;2.15;;
64560;SDS011;50960;46.838;16.838;2023-08-31T14:39:53;3.00;;;2.70;;
64560;SDS011;50960;46.838;16.838;2023-08-31T14:42:19;2.25;;;2.15;;
64560;SDS011;50960;46.838;16.838;2023-08-31T14:44:49;2.50;;;2.30;;
64560;SDS011;50960;46.838;16.838;2023-08-31T14:47:15;2.20;;;2.10;;
64560;SDS011;50960;46.838;16.838;2023-08-31T14:49:42;2.47;;;2.28;;
64560;SDS011;50960;46.838;16.838;2023-08-31T14:52:08;2.30;;;2.10;;
64560;SDS011;50960;46.838;16.838;2023-08-31T14:54:35;2.20;;;2.10;;
64560;SDS011;50960;46.838;16.838;2023-08-31T14:57:01;3.08;;;2.30;;
64560;SDS011;50960;46.838;16.838;2023-08-31T14:59:31;2.35;;;2.15;;
64560;SDS011;50960;46.838;16.838;2023-08-31T15:01:58;2.47;;;2.28;;
64560;SDS011;50960;46.838;16.838;2023-08-31T15:04:26;2.90;;;2.10;;
64560;SDS011;50960;46.838;16.838;2023-08-31T15:06:54;2.67;;;2.25;;
64560;SDS011;50960;46.838;16.838;2023-08-31T15:09:20;1.90;;;1.80;;
64560;SDS011;50960;46.838;16.838;2023-08-31T15:11:46;2.13;;;2.00;;
64560;SDS011;50960;46.838;16.838;2023-08-31T15:14:13;2.20;;;2.00;;
64560;SDS011;50960;46.838;16.838;2023-08-31T15:16:39;2.00;;;1.90;;
64560;SDS011;50960;46.838;16.838;2023-08-31T15:19:06;2.42;;;2.22;;
64560;SDS011;50960;46.838;16.838;2023-08-31T15:21:33;2.20;;;2.10;;
64560;SDS011;50960;46.838;16.838;2023-08-31T15:24:00;2.30;;;2.08;;
64560;SDS011;50960;46.838;16.838;2023-08-31T15:26:26;2.28;;;2.05;;
64560;SDS011;50960;46.838;16.838;2023-08-31T15:28:53;2.10;;;2.00;;
64560;SDS011;50960;46.838;16.838;2023-08-31T15:31:19;2.10;;;1.90;;
64560;SDS011;50960;46.838;16.838;2023-08-31T15:33:45;2.30;;;2.10;;
64560;SDS011;50960;46.838;16.838;2023-08-31T15:36:12;2.00;;;1.90;;
64560;SDS011;50960;46.838;16.838;2023-08-31T15:38:38;2.35;;;2.08;;
64560;SDS011;50960;46.838;16.838;2023-08-31T15:41:04;2.10;;;2.00;;
64560;SDS011;50960;46.838;16.838;2023-08-31T15:43:32;2.42;;;2.22;;
64560;SDS011;50960;46.838;16.838;2023-08-31T15:46:01;2.20;;;2.10;;
64560;SDS011;50960;46.838;16.838;2023-08-31T15:48:28;2.03;;;1.92;;
64560;SDS011;50960;46.838;16.838;2023-08-31T15:50:56;2.00;;;1.90;;
64560;SDS011;50960;46.838;16.838;2023-08-31T15:53:23;2.17;;;1.98;;
64560;SDS011;50960;46.838;16.838;2023-08-31T15:55:50;2.92;;;2.10;;
64560;SDS011;50960;46.838;16.838;2023-08-31T15:58:16;2.35;;;2.15;;
64560;SDS011;50960;46.838;16.838;2023-08-31T16:00:43;1.90;;;1.80;;
64560;SDS011;50960;46.838;16.838;2023-08-31T16:03:09;2.65;;;1.98;;
64560;SDS011;50960;46.838;16.838;2023-08-31T16:05:37;1.90;;;1.80;;
64560;SDS011;50960;46.838;16.838;2023-08-31T16:08:03;3.95;;;2.30;;
64560;SDS011;50960;46.838;16.838;2023-08-31T16:10:30;2.05;;;1.90;;
64560;SDS011;50960;46.838;16.838;2023-08-31T16:12:57;1.92;;;1.80;;
64560;SDS011;50960;46.838;16.838;2023-08-31T16:15:25;3.35;;;1.80;;
64560;SDS011;50960;46.838;16.838;2023-08-31T16:17:53;2.17;;;1.98;;
64560;SDS011;50960;46.838;16.838;2023-08-31T16:20:20;2.10;;;2.00;;
64560;SDS011;50960;46.838;16.838;2023-08-31T16:22:46;2.75;;;2.05;;
64560;SDS011;50960;46.838;16.838;2023-08-31T16:25:13;2.28;;;2.00;;
64560;SDS011;50960;46.838;16.838;2023-08-31T16:27:43;1.95;;;1.80;;
64560;SDS011;50960;46.838;16.838;2023-08-31T16:30:11;1.92;;;1.75;;
64560;SDS011;50960;46.838;16.838;2023-08-31T16:32:38;2.20;;;2.00;;
64560;SDS011;50960;46.838;16.838;2023-08-31T16:35:05;2.20;;;1.80;;
64560;SDS011;50960;46.838;16.838;2023-08-31T16:37:31;1.95;;;1.75;;
64560;SDS011;50960;46.838;16.838;2023-08-31T16:39:58;1.92;;;1.80;;
64560;SDS011;50960;46.838;16.838;2023-08-31T16:42:24;3.05;;;2.03;;
64560;SDS011;50960;46.838;16.838;2023-08-31T16:44:50;2.17;;;2.03;;
64560;SDS011;50960;46.838;16.838;2023-08-31T16:47:17;2.13;;;1.90;;
64560;SDS011;50960;46.838;16.838;2023-08-31T16:49:43;1.98;;;1.88;;
64560;SDS011;50960;46.838;16.838;2023-08-31T16:52:11;2.40;;;2.20;;
64560;SDS011;50960;46.838;16.838;2023-08-31T16:54:37;2.80;;;1.90;;
64560;SDS011;50960;46.838;16.838;2023-08-31T16:57:03;2.10;;;1.83;;
64560;SDS011;50960;46.838;16.838;2023-08-31T16:59:30;2.65;;;1.90;;
64560;SDS011;50960;46.838;16.838;2023-08-31T17:01:57;2.08;;;1.98;;
64560;SDS011;50960;46.838;16.838;2023-08-31T17:04:24;2.05;;;1.85;;
64560;SDS011;50960;46.838;16.838;2023-08-31T17:06:53;2.50;;;1.85;;
64560;SDS011;50960;46.838;16.838;2023-08-31T17:09:19;2.22;;;1.90;;
64560;SDS011;50960;46.838;16.838;2023-08-31T17:11:45;2.63;;;2.10;;
64560;SDS011;50960;46.838;16.838;2023-08-31T17:14:12;2.17;;;2.08;;
64560;SDS011;50960;46.838;16.838;2023-08-31T17:16:40;2.03;;;1.92;;
64560;SDS011;50960;46.838;16.838;2023-08-31T17:19:06;2.30;;;2.10;;
64560;SDS011;50960;46.838;16.838;2023-08-31T17:21:32;2.05;;;1.88;;
64560;SDS011;50960;46.838;16.838;2023-08-31T17:23:59;2.20;;;2.00;;
64560;SDS011;50960;46.838;16.838;2023-08-31T17:26:25;2.85;;;2.25;;
64560;SDS011;50960;46.838;16.838;2023-08-31T17:28:52;2.17;;;2.00;;
64560;SDS011;50960;46.838;16.838;2023-08-31T17:31:18;2.42;;;2.22;;
64560;SDS011;50960;46.838;16.838;2023-08-31T17:33:45;2.70;;;1.90;;
64560;SDS011;50960;46.838;16.838;2023-08-31T17:36:16;2.00;;;1.90;;
64560;SDS011;50960;46.838;16.838;2023-08-31T17:38:43;3.33;;;1.88;;
64560;SDS011;50960;46.838;16.838;2023-08-31T17:41:10;1.90;;;1.80;;
64560;SDS011;50960;46.838;16.838;2023-08-31T17:43:37;2.00;;;1.90;;
64560;SDS011;50960;46.838;16.838;2023-08-31T17:46:03;2.13;;;1.90;;
64560;SDS011;50960;46.838;16.838;2023-08-31T17:48:30;2.78;;;2.00;;
64560;SDS011;50960;46.838;16.838;2023-08-31T17:51:00;1.90;;;1.80;;
64560;SDS011;50960;46.838;16.838;2023-08-31T17:53:28;2.00;;;1.90;;
64560;SDS011;50960;46.838;16.838;2023-08-31T17:55:56;1.85;;;1.75;;
64560;SDS011;50960;46.838;16.838;2023-08-31T17:58:22;2.13;;;1.95;;
64560;SDS011;50960;46.838;16.838;2023-08-31T18:00:49;1.88;;;1.77;;
64560;SDS011;50960;46.838;16.838;2023-08-31T18:03:15;2.80;;;2.00;;
64560;SDS011;50960;46.838;16.838;2023-08-31T18:05:48;2.00;;;1.90;;
64560;SDS011;50960;46.838;16.838;2023-08-31T18:08:19;2.30;;;2.10;;
64560;SDS011;50960;46.838;16.838;2023-08-31T18:10:54;2.50;;;2.20;;
64560;SDS011;50960;46.838;16.838;2023-08-31T18:13:20;2.10;;;2.00;;
64560;SDS011;50960;46.838;16.838;2023-08-31T18:15:50;2.17;;;1.90;;
64560;SDS011;50960;46.838;16.838;2023-08-31T18:18:17;5.00;;;2.80;;
64560;SDS011;50960;46.838;16.838;2023-08-31T18:20:44;9.18;;;3.95;;
64560;SDS011;50960;46.838;16.838;2023-08-31T18:23:10;11.40;;;3.95;;
64560;SDS011;50960;46.838;16.838;2023-08-31T18:25:37;10.75;;;3.92;;
64560;SDS011;50960;46.838;16.838;2023-08-31T18:28:03;7.40;;;3.30;;
64560;SDS011;50960;46.838;16.838;2023-08-31T18:30:30;5.90;;;2.97;;
64560;SDS011;50960;46.838;16.838;2023-08-31T18:32:56;4.90;;;3.00;;
64560;SDS011;50960;46.838;16.838;2023-08-31T18:35:24;3.00;;;2.67;;
64560;SDS011;50960;46.838;16.838;2023-08-31T18:37:51;3.92;;;2.90;;
64560;SDS011;50960;46.838;16.838;2023-08-31T18:40:17;3.10;;;2.50;;
64560;SDS011;50960;46.838;16.838;2023-08-31T18:42:44;4.30;;;2.60;;
64560;SDS011;50960;46.838;16.838;2023-08-31T18:45:10;4.43;;;2.80;;
64560;SDS011;50960;46.838;16.838;2023-08-31T18:47:39;3.50;;;2.70;;
64560;SDS011;50960;46.838;16.838;2023-08-31T18:50:05;3.40;;;2.70;;
64560;SDS011;50960;46.838;16.838;2023-08-31T18:52:33;3.60;;;2.70;;
64560;SDS011;50960;46.838;16.838;2023-08-31T18:54:59;4.32;;;2.80;;
64560;SDS011;50960;46.838;16.838;2023-08-31T18:57:25;3.20;;;2.40;;
64560;SDS011;50960;46.838;16.838;2023-08-31T18:59:52;3.22;;;3.03;;
64560;SDS011;50960;46.838;16.838;2023-08-31T19:02:18;2.70;;;2.50;;
64560;SDS011;50960;46.838;16.838;2023-08-31T19:04:46;3.80;;;2.63;;
64560;SDS011;50960;46.838;16.838;2023-08-31T19:07:17;4.25;;;2.78;;
64560;SDS011;50960;46.838;16.838;2023-08-31T19:09:45;4.00;;;2.80;;
64560;SDS011;50960;46.838;16.838;2023-08-31T19:12:11;4.32;;;2.60;;
64560;SDS011;50960;46.838;16.838;2023-08-31T19:14:38;4.38;;;2.90;;
64560;SDS011;50960;46.838;16.838;2023-08-31T19:17:04;3.03;;;2.63;;
64560;SDS011;50960;46.838;16.838;2023-08-31T19:19:31;3.13;;;2.83;;
64560;SDS011;50960;46.838;16.838;2023-08-31T19:21:57;4.13;;;3.08;;
64560;SDS011;50960;46.838;16.838;2023-08-31T19:24:23;4.65;;;2.97;;
64560;SDS011;50960;46.838;16.838;2023-08-31T19:26:49;3.30;;;3.00;;
64560;SDS011;50960;46.838;16.838;2023-08-31T19:29:16;4.05;;;3.03;;
64560;SDS011;50960;46.838;16.838;2023-08-31T19:31:42;3.40;;;2.88;;
64560;SDS011;50960;46.838;16.838;2023-08-31T19:34:09;4.97;;;2.72;;
64560;SDS011;50960;46.838;16.838;2023-08-31T19:36:35;3.15;;;2.80;;
